Aegean Orion — SVA2487 — position and weather

sailwx.info

Track history (hours):
 
Tides and Currents Weather Stations Pressure Air Temp Water Temp Dewpoint Dewpoint Depression Visibility Wind Speed Wind Dir Waves Ship Positions

Aegean Orion

Last reported at 2014-Oct-30 20:34 UTC. Time now 2014-Oct-30 22:53 UTC.
Position N 38°02' E 023°33'.

; draft 2.4 m.

Type: Ship. MMSI: 239550200.

Date/timePositionNaut miles runAvg speedWind from/ knotsBaromVisibWave heightAir tempDewpointWater temp
2014-Oct-30 20:34N 38°02' E 023°33'7 6.5
2014-Oct-30 19:33N 37°56' E 023°38'1 0.9
2014-Oct-30 18:33N 37°57' E 023°38'3 2.6
2014-Oct-30 17:33N 37°57' E 023°35'1 0.8
2014-Oct-30 16:33N 37°57' E 023°34'0 0.0
2014-Oct-30 15:33N 37°57' E 023°34'0 0.0
2014-Oct-30 14:33N 37°57' E 023°34'0 0.0
2014-Oct-30 13:33N 37°57' E 023°34'0 0.0
2014-Oct-30 12:34N 37°57' E 023°34'0 0.0
2014-Oct-30 11:34N 37°57' E 023°34'2 2.3
2014-Oct-30 10:34N 37°56' E 023°37'0 0.4
2014-Oct-30 09:34N 37°56' E 023°37'0 0.0
2014-Oct-30 08:33N 37°56' E 023°37'3 3.2
2014-Oct-30 07:33N 37°57' E 023°34'5 4.7
2014-Oct-30 06:33N 38°02' E 023°32'1 0.0
2014-Oct-29 14:05N 38°02' E 023°32'1 2.0
2014-Oct-29 13:33N 38°02' E 023°31'0 0.0
2014-Oct-29 12:33N 38°02' E 023°31'0 0.0
2014-Oct-29 11:33N 38°02' E 023°31'0 0.0
2014-Oct-29 10:33N 38°02' E 023°31'0 0.0
2014-Oct-29 09:33N 38°02' E 023°31'0 0.0
2014-Oct-29 08:33N 38°02' E 023°31'0 0.0
2014-Oct-29 07:33N 38°02' E 023°31'0 0.0
2014-Oct-29 06:32N 38°02' E 023°31'1 0.9
2014-Oct-29 05:26N 38°02' E 023°32'0 0.0
2014-Oct-27 13:04N 38°02' E 023°32'0 0.0
2014-Oct-27 12:34N 38°02' E 023°32'0 0.0
2014-Oct-27 11:33N 38°02' E 023°32'5 5.4
2014-Oct-27 10:34N 37°57' E 023°34'3 3.2
2014-Oct-27 09:34N 37°57' E 023°38'0 0.0
2014-Oct-27 08:34N 37°57' E 023°38'0 0.0
2014-Oct-27 07:34N 37°57' E 023°38'0 0.4
2014-Oct-27 06:34N 37°56' E 023°38'6 6.0
2014-Oct-27 05:34N 38°01' E 023°32'2 0.2
2014-Oct-26 20:27N 38°02' E 023°32'0 0.0
2014-Oct-26 19:32N 38°02' E 023°32'0 0.0
2014-Oct-26 09:13N 38°02' E 023°32'2 2.6
2014-Oct-26 08:34N 38°01' E 023°33'6 5.9
2014-Oct-26 07:34N 37°56' E 023°38'0 0.1
2014-Oct-26 06:33N 37°56' E 023°38'1 0.9
2014-Oct-26 05:34N 37°56' E 023°37'5 5.0
2014-Oct-26 04:33N 38°00' E 023°33'2 0.2
2014-Oct-25 17:33N 38°02' E 023°31'0 0.1
2014-Oct-25 16:33N 38°02' E 023°31'0 0.0
2014-Oct-25 15:33N 38°02' E 023°31'0 0.0
2014-Oct-25 14:32N 38°02' E 023°31'0 0.0
2014-Oct-25 13:33N 38°02' E 023°31'1 0.8
2014-Oct-25 12:33N 38°02' E 023°32'0 0.1
2014-Oct-25 11:33N 38°02' E 023°32'1 1.0
2014-Oct-25 10:33N 38°01' E 023°32'0 0.4
2014-Oct-25 09:33N 38°00' E 023°33'6 5.9
2014-Oct-25 08:33N 37°57' E 023°38'0 0.0
2014-Oct-25 07:33N 37°57' E 023°38'0 0.0
2014-Oct-25 06:33N 37°57' E 023°38'1 1.2
2014-Oct-25 05:33N 37°56' E 023°37'5 5.3
2014-Oct-25 04:33N 38°00' E 023°33'2 0.1
2014-Oct-24 10:33N 38°02' E 023°32'0 0.1
2014-Oct-24 09:34N 38°02' E 023°32'7 6.7
2014-Oct-24 08:34N 37°57' E 023°36'1 0.9
2014-Oct-24 07:33N 37°56' E 023°38'0 0.0
2014-Oct-24 06:33N 37°56' E 023°38'0 0.4
2014-Oct-24 05:33N 37°56' E 023°37'6 6.1
2014-Oct-24 04:33N 38°01' E 023°32'1 0.1
2014-Oct-23 16:33N 38°02' E 023°31'0 0.2
2014-Oct-23 15:33N 38°02' E 023°31'0 0.0
2014-Oct-23 14:33N 38°02' E 023°31'0 0.0
2014-Oct-23 13:33N 38°02' E 023°31'1 0.7
2014-Oct-23 12:33N 38°02' E 023°32'0 0.0
2014-Oct-23 11:33N 38°02' E 023°32'1 1.2
2014-Oct-23 10:33N 38°01' E 023°32'6 6.2
2014-Oct-23 09:33N 37°56' E 023°37'0 0.1
2014-Oct-23 08:33N 37°56' E 023°37'0 0.0
2014-Oct-23 07:33N 37°56' E 023°37'3 3.0
2014-Oct-23 06:33N 37°57' E 023°34'3 3.5
2014-Oct-23 05:33N 38°01' E 023°32'2 1.7
2014-Oct-23 04:33N 38°02' E 023°32'0 0.0
2014-Oct-21 04:32N 38°02' E 023°32'  
Track history (hours):
 
Tides and Currents Weather Stations Pressure Air Temp Water Temp Dewpoint Dewpoint Depression Visibility Wind Speed Wind Dir Waves Ship Positions

Aegean Orion

Last reported at 2014-Oct-30 20:34 UTC. Time now 2014-Oct-30 22:53 UTC.
Position N 38°02' E 023°33'.

; draft 2.4 m.

Type: Ship. MMSI: 239550200.

Date/timePositionNaut miles runAvg speedWind from/ knotsBaromVisibWave heightAir tempDewpointWater temp
2014-Oct-30 20:34N 38°02' E 023°33'7 6.5
2014-Oct-30 19:33N 37°56' E 023°38'1 0.9
2014-Oct-30 18:33N 37°57' E 023°38'3 2.6
2014-Oct-30 17:33N 37°57' E 023°35'1 0.8
2014-Oct-30 16:33N 37°57' E 023°34'0 0.0
2014-Oct-30 15:33N 37°57' E 023°34'0 0.0
2014-Oct-30 14:33N 37°57' E 023°34'0 0.0
2014-Oct-30 13:33N 37°57' E 023°34'0 0.0
2014-Oct-30 12:34N 37°57' E 023°34'0 0.0
2014-Oct-30 11:34N 37°57' E 023°34'2 2.3
2014-Oct-30 10:34N 37°56' E 023°37'0 0.4
2014-Oct-30 09:34N 37°56' E 023°37'0 0.0
2014-Oct-30 08:33N 37°56' E 023°37'3 3.2
2014-Oct-30 07:33N 37°57' E 023°34'5 4.7
2014-Oct-30 06:33N 38°02' E 023°32'1 0.0
2014-Oct-29 14:05N 38°02' E 023°32'1 2.0
2014-Oct-29 13:33N 38°02' E 023°31'0 0.0
2014-Oct-29 12:33N 38°02' E 023°31'0 0.0
2014-Oct-29 11:33N 38°02' E 023°31'0 0.0
2014-Oct-29 10:33N 38°02' E 023°31'0 0.0
2014-Oct-29 09:33N 38°02' E 023°31'0 0.0
2014-Oct-29 08:33N 38°02' E 023°31'0 0.0
2014-Oct-29 07:33N 38°02' E 023°31'0 0.0
2014-Oct-29 06:32N 38°02' E 023°31'1 0.9
2014-Oct-29 05:26N 38°02' E 023°32'0 0.0
2014-Oct-27 13:04N 38°02' E 023°32'0 0.0
2014-Oct-27 12:34N 38°02' E 023°32'0 0.0
2014-Oct-27 11:33N 38°02' E 023°32'5 5.4
2014-Oct-27 10:34N 37°57' E 023°34'3 3.2
2014-Oct-27 09:34N 37°57' E 023°38'0 0.0
2014-Oct-27 08:34N 37°57' E 023°38'0 0.0
2014-Oct-27 07:34N 37°57' E 023°38'0 0.4
2014-Oct-27 06:34N 37°56' E 023°38'6 6.0
2014-Oct-27 05:34N 38°01' E 023°32'2 0.2
2014-Oct-26 20:27N 38°02' E 023°32'0 0.0
2014-Oct-26 19:32N 38°02' E 023°32'0 0.0
2014-Oct-26 09:13N 38°02' E 023°32'2 2.6
2014-Oct-26 08:34N 38°01' E 023°33'6 5.9
2014-Oct-26 07:34N 37°56' E 023°38'0 0.1
2014-Oct-26 06:33N 37°56' E 023°38'1 0.9
2014-Oct-26 05:34N 37°56' E 023°37'5 5.0
2014-Oct-26 04:33N 38°00' E 023°33'2 0.2
2014-Oct-25 17:33N 38°02' E 023°31'0 0.1
2014-Oct-25 16:33N 38°02' E 023°31'0 0.0
2014-Oct-25 15:33N 38°02' E 023°31'0 0.0
2014-Oct-25 14:32N 38°02' E 023°31'0 0.0
2014-Oct-25 13:33N 38°02' E 023°31'1 0.8
2014-Oct-25 12:33N 38°02' E 023°32'0 0.1
2014-Oct-25 11:33N 38°02' E 023°32'1 1.0
2014-Oct-25 10:33N 38°01' E 023°32'0 0.4
2014-Oct-25 09:33N 38°00' E 023°33'6 5.9
2014-Oct-25 08:33N 37°57' E 023°38'0 0.0
2014-Oct-25 07:33N 37°57' E 023°38'0 0.0
2014-Oct-25 06:33N 37°57' E 023°38'1 1.2
2014-Oct-25 05:33N 37°56' E 023°37'5 5.3
2014-Oct-25 04:33N 38°00' E 023°33'2 0.1
2014-Oct-24 10:33N 38°02' E 023°32'0 0.1
2014-Oct-24 09:34N 38°02' E 023°32'7 6.7
2014-Oct-24 08:34N 37°57' E 023°36'1 0.9
2014-Oct-24 07:33N 37°56' E 023°38'0 0.0
2014-Oct-24 06:33N 37°56' E 023°38'0 0.4
2014-Oct-24 05:33N 37°56' E 023°37'6 6.1
2014-Oct-24 04:33N 38°01' E 023°32'1 0.1
2014-Oct-23 16:33N 38°02' E 023°31'0 0.2
2014-Oct-23 15:33N 38°02' E 023°31'0 0.0
2014-Oct-23 14:33N 38°02' E 023°31'0 0.0
2014-Oct-23 13:33N 38°02' E 023°31'1 0.7
2014-Oct-23 12:33N 38°02' E 023°32'0 0.0
2014-Oct-23 11:33N 38°02' E 023°32'1 1.2
2014-Oct-23 10:33N 38°01' E 023°32'6 6.2
2014-Oct-23 09:33N 37°56' E 023°37'0 0.1
2014-Oct-23 08:33N 37°56' E 023°37'0 0.0
2014-Oct-23 07:33N 37°56' E 023°37'3 3.0
2014-Oct-23 06:33N 37°57' E 023°34'3 3.5
2014-Oct-23 05:33N 38°01' E 023°32'2 1.7
2014-Oct-23 04:33N 38°02' E 023°32'0 0.0
2014-Oct-21 04:32N 38°02' E 023°32'  

Dump ship's entire track history